Time;durP1;ratioP1;P1;durP2;ratioP2;P2;SDS_P1;SDS_P2;PMS_P1;PMS_P2;Temp;Humidity;BMP_temperature;BMP_pressure;BME280_temperature;BME280_humidity;BME280_pressure;Samples;Min_cycle;Max_cycle;Signal;HPM_P1;HPM_P2
2021/11/06 00:00:23;;;;;;;;;43.25;35.75;;;;;8.21;87.57;102773.13;5050550;28;45487;-60
2021/11/06 00:02:48;;;;;;;;;42.25;35.25;;;;;8.16;87.64;102767.84;5050042;28;47022;-59
2021/11/06 00:05:14;;;;;;;;;45.75;33.50;;;;;8.10;87.28;102765.16;5047986;28;45358;-59
2021/11/06 00:07:39;;;;;;;;;34.50;33.75;;;;;8.09;87.64;102772.91;5048834;28;45411;-59
2021/11/06 00:10:07;;;;;;;;;43.25;37.50;;;;;8.04;87.45;102778.03;5049915;28;45296;-59
2021/11/06 00:12:32;;;;;;;;;43.50;40.25;;;;;7.99;88.02;102777.06;5049057;28;47148;-59
2021/11/06 00:14:57;;;;;;;;;41.00;34.25;;;;;7.96;87.82;102774.44;5047392;28;45485;-59
2021/11/06 00:17:23;;;;;;;;;47.25;40.00;;;;;7.89;87.74;102773.47;5048675;28;45352;-59
2021/11/06 00:19:48;;;;;;;;;48.25;38.00;;;;;7.87;88.26;102779.47;5046791;28;45430;-59
2021/11/06 00:22:14;;;;;;;;;45.50;40.50;;;;;7.87;88.64;102779.47;5047391;28;46092;-59
2021/11/06 00:24:39;;;;;;;;;50.00;38.25;;;;;7.86;88.72;102786.38;5045813;28;45682;-58
2021/11/06 00:27:05;;;;;;;;;42.50;37.00;;;;;7.83;89.08;102785.47;5046646;28;45462;-58
2021/11/06 00:29:30;;;;;;;;;49.75;41.75;;;;;7.81;89.01;102780.25;5046605;28;45559;-58
2021/11/06 00:31:55;;;;;;;;;57.50;43.25;;;;;7.80;88.93;102778.50;5047064;28;45951;-59
2021/11/06 00:34:21;;;;;;;;;38.50;35.50;;;;;7.76;89.20;102765.47;5047939;28;45319;-58
2021/11/06 00:36:46;;;;;;;;;52.00;39.75;;;;;7.71;89.55;102769.72;5051010;28;45378;-58
2021/11/06 00:39:12;;;;;;;;;48.00;37.50;;;;;7.63;89.65;102775.63;5048426;28;45398;-58
2021/11/06 00:41:37;;;;;;;;;52.00;39.50;;;;;7.62;89.84;102768.72;5048292;28;45414;-58
2021/11/06 00:44:03;;;;;;;;;54.50;41.25;;;;;7.60;89.69;102764.34;5052350;28;45506;-57
2021/11/06 00:46:28;;;;;;;;;48.25;38.50;;;;;7.53;89.59;102753.03;5048107;28;45379;-59
2021/11/06 00:48:53;;;;;;;;;44.75;38.50;;;;;7.54;90.12;102759.06;5048793;28;45417;-58
2021/11/06 00:51:19;;;;;;;;;50.75;40.75;;;;;7.53;89.87;102760.78;5049059;28;46091;-58
2021/11/06 00:53:46;;;;;;;;;51.00;41.00;;;;;7.56;90.31;102763.41;5050366;28;45177;-57
2021/11/06 00:56:12;;;;;;;;;50.50;41.75;;;;;7.57;90.39;102753.94;5050296;28;45351;-58
2021/11/06 00:58:37;;;;;;;;;53.50;42.25;;;;;7.57;90.45;102747.06;5048064;28;45488;-58
2021/11/06 01:01:02;;;;;;;;;55.50;42.00;;;;;7.59;90.46;102745.34;5047909;28;46259;-58
2021/11/06 01:03:28;;;;;;;;;52.25;43.25;;;;;7.60;90.66;102741.06;5051270;28;45382;-58
2021/11/06 01:05:53;;;;;;;;;48.50;39.50;;;;;7.58;90.48;102734.97;5050094;28;45370;-58
2021/11/06 01:08:18;;;;;;;;;46.75;41.00;;;;;7.60;90.22;102744.50;5047917;28;45491;-58
2021/11/06 01:10:44;;;;;;;;;48.25;40.00;;;;;7.56;90.18;102737.53;5052968;28;45997;-58
2021/11/06 01:13:11;;;;;;;;;50.50;42.50;;;;;7.56;90.24;102740.13;5044459;28;45525;-58
2021/11/06 01:15:37;;;;;;;;;49.00;40.50;;;;;7.53;90.57;102734.91;5044723;28;45281;-58
2021/11/06 01:18:03;;;;;;;;;47.25;39.75;;;;;7.53;90.65;102740.09;5052329;28;45399;-59
2021/11/06 01:20:28;;;;;;;;;49.50;42.25;;;;;7.56;90.74;102745.31;5056862;28;45331;-59
2021/11/06 01:22:54;;;;;;;;;50.50;41.00;;;;;7.55;90.64;102734.94;5057696;28;45310;-59
2021/11/06 01:25:19;;;;;;;;;54.00;39.25;;;;;7.56;90.31;102745.31;5048637;28;45303;-58
2021/11/06 01:27:47;;;;;;;;;49.25;39.75;;;;;7.53;90.79;102750.44;5048415;28;45286;-59
2021/11/06 01:30:13;;;;;;;;;53.50;40.00;;;;;7.52;90.62;102742.66;5049347;28;46327;-60
2021/11/06 01:32:39;;;;;;;;;32.75;25.25;;;;;7.49;90.94;102740.88;5057370;28;45394;-60
2021/11/06 01:35:05;;;;;;;;;55.25;40.50;;;;;7.49;90.87;102740.88;5064069;28;45459;-60
2021/11/06 01:37:32;;;;;;;;;46.75;38.25;;;;;7.51;90.94;102739.19;5058496;28;45555;-60
2021/11/06 01:39:57;;;;;;;;;55.25;39.25;;;;;7.53;90.66;102737.50;5058837;28;45345;-60
2021/11/06 01:42:25;;;;;;;;;46.50;38.25;;;;;7.49;90.55;102735.72;5058800;28;45196;-60
2021/11/06 01:44:50;;;;;;;;;45.50;38.00;;;;;7.49;91.04;102746.06;5058155;28;45418;-59
2021/11/06 01:47:16;;;;;;;;;49.25;37.00;;;;;7.48;90.88;102743.44;5055323;28;45602;-59
2021/11/06 01:49:41;;;;;;;;;48.50;38.50;;;;;7.45;90.99;102740.81;5056986;28;45884;-59
2021/11/06 01:52:07;;;;;;;;;42.75;39.50;;;;;7.47;91.20;102737.41;5054879;28;45709;-58
2021/11/06 01:54:33;;;;;;;;;49.25;39.50;;;;;7.43;91.08;102730.44;5045380;28;45488;-59
2021/11/06 01:57:00;;;;;;;;;43.75;36.00;;;;;7.47;91.06;102734.81;5056324;28;45665;-59
2021/11/06 01:59:25;;;;;;;;;45.25;39.25;;;;;7.45;91.01;102741.69;5056438;28;46507;-59
2021/11/06 02:01:51;;;;;;;;;47.75;39.00;;;;;7.44;91.35;102742.53;5058351;28;45325;-59
2021/11/06 02:04:16;;;;;;;;;46.00;38.00;;;;;7.43;91.23;102733.03;5059145;28;45275;-59
2021/11/06 02:06:42;;;;;;;;;39.75;34.00;;;;;7.41;91.29;102734.72;5058937;28;45228;-60
2021/11/06 02:09:07;;;;;;;;;46.75;39.25;;;;;7.33;91.22;102731.09;5058930;28;46047;-60
2021/11/06 02:11:35;;;;;;;;;44.75;36.25;;;;;7.35;91.09;102742.34;5060780;28;45359;-59
2021/11/06 02:14:00;;;;;;;;;43.75;33.50;;;;;7.28;90.67;102738.78;5062713;28;45438;-59
2021/11/06 02:16:26;;;;;;;;;45.50;38.75;;;;;7.28;91.39;102740.50;5062116;28;45243;-59
2021/11/06 02:18:52;;;;;;;;;53.50;41.00;;;;;7.25;91.13;102743.03;5060741;28;46017;-59
2021/11/06 02:21:17;;;;;;;;;38.50;34.00;;;;;7.22;91.54;102733.53;5062099;28;45393;-59
2021/11/06 02:23:47;;;;;;;;;38.75;35.00;;;;;7.25;91.45;102743.03;5054790;28;45315;-57
2021/11/06 02:26:13;;;;;;;;;47.00;38.75;;;;;7.24;91.61;102754.22;5058352;28;45366;-58
2021/11/06 02:28:39;;;;;;;;;36.75;32.00;;;;;7.22;91.57;102736.09;5062171;28;45969;-59
2021/11/06 02:31:05;;;;;;;;;42.50;38.00;;;;;7.24;91.59;102749.94;5061718;28;45788;-59
2021/11/06 02:33:31;;;;;;;;;41.75;36.25;;;;;7.21;91.67;102741.25;5062319;28;45247;-60
2021/11/06 02:36:00;;;;;;;;;44.00;39.25;;;;;7.20;91.75;102736.88;5067641;28;45315;-59
2021/11/06 02:38:26;;;;;;;;;36.75;34.75;;;;;7.19;91.63;102729.97;5062032;28;46456;-59
2021/11/06 02:40:51;;;;;;;;;37.75;36.00;;;;;7.20;91.75;102734.31;5061687;28;45863;-59
2021/11/06 02:43:17;;;;;;;;;44.50;38.25;;;;;7.16;91.61;102730.81;5062196;28;45280;-59
2021/11/06 02:45:42;;;;;;;;;41.50;36.50;;;;;7.16;91.62;102727.34;5060120;28;46377;-59
2021/11/06 02:48:07;;;;;;;;;51.00;35.50;;;;;7.14;91.53;102721.28;5062061;28;45288;-59
2021/11/06 02:50:33;;;;;;;;;40.75;34.75;;;;;7.12;91.76;102722.97;5061771;28;45434;-58
2021/11/06 02:52:59;;;;;;;;;45.00;38.50;;;;;7.06;92.14;102713.38;5053081;28;45312;-58
2021/11/06 02:55:24;;;;;;;;;41.25;33.00;;;;;7.11;91.79;102718.63;5057056;28;45162;-60
2021/11/06 02:57:50;;;;;;;;;51.75;38.75;;;;;7.10;91.64;102724.66;5061763;28;45377;-60
2021/11/06 03:00:16;;;;;;;;;40.00;35.75;;;;;7.10;91.89;102725.53;5061159;28;45222;-59
2021/11/06 03:02:42;;;;;;;;;35.75;32.25;;;;;7.09;91.88;102722.91;5062049;28;45387;-59
2021/11/06 03:05:09;;;;;;;;;46.25;38.50;;;;;7.08;92.27;102723.75;5061441;28;45344;-58
2021/11/06 03:07:35;;;;;;;;;40.75;37.00;;;;;7.07;91.98;102725.47;5061679;28;46178;-58
2021/11/06 03:10:02;;;;;;;;;49.50;36.00;;;;;7.07;92.17;102730.63;5061429;28;45413;-60
2021/11/06 03:12:28;;;;;;;;;44.00;35.25;;;;;7.07;92.33;102738.41;5061801;28;45377;-60
2021/11/06 03:14:54;;;;;;;;;39.50;36.00;;;;;7.05;92.55;102742.66;5061052;28;45449;-60
2021/11/06 03:17:20;;;;;;;;;44.50;39.00;;;;;7.03;92.37;102746.06;5061592;28;45374;-61
2021/11/06 03:19:45;;;;;;;;;46.00;37.50;;;;;7.01;92.77;102740.88;5059801;28;45769;-61
2021/11/06 03:22:11;;;;;;;;;38.25;38.00;;;;;7.04;92.73;102740.06;5061044;28;45275;-61
2021/11/06 03:24:37;;;;;;;;;40.75;35.00;;;;;7.02;92.48;102734.88;5049021;28;45373;-61
2021/11/06 03:27:04;;;;;;;;;40.00;35.75;;;;;7.01;92.96;102738.28;5061227;28;46173;-60
2021/11/06 03:29:29;;;;;;;;;37.50;32.00;;;;;7.02;92.69;102737.44;5060864;28;45232;-61
2021/11/06 03:31:55;;;;;;;;;42.50;37.75;;;;;7.00;92.52;102729.63;5061231;28;45460;-61
2021/11/06 03:34:20;;;;;;;;;44.50;39.00;;;;;6.96;93.17;102735.59;5061153;28;45426;-61
2021/11/06 03:36:46;;;;;;;;;51.25;39.00;;;;;6.88;92.98;102734.59;5066949;28;46291;-60
2021/11/06 03:39:11;;;;;;;;;47.00;41.00;;;;;6.94;93.44;102746.75;5060979;28;45442;-61
2021/11/06 03:41:37;;;;;;;;;39.25;33.50;;;;;6.92;93.20;102738.97;5061168;28;45443;-60
2021/11/06 03:44:03;;;;;;;;;43.25;38.25;;;;;6.90;93.24;102742.38;5060662;28;45588;-61
2021/11/06 03:46:28;;;;;;;;;48.00;39.50;;;;;6.88;93.15;102738.88;5059435;28;46151;-60
2021/11/06 03:48:54;;;;;;;;;39.50;37.25;;;;;6.87;93.28;102742.31;5060903;28;45456;-60
2021/11/06 03:51:20;;;;;;;;;39.00;36.75;;;;;6.84;93.30;102734.50;5061106;28;45344;-61
2021/11/06 03:53:46;;;;;;;;;46.25;38.25;;;;;6.83;92.97;102738.78;5047147;28;45280;-62
2021/11/06 03:56:11;;;;;;;;;52.25;40.00;;;;;6.82;92.79;102742.22;5060780;28;46881;-61
2021/11/06 03:58:36;;;;;;;;;40.75;37.75;;;;;6.77;92.55;102746.41;5060818;28;45355;-61
2021/11/06 04:01:03;;;;;;;;;44.50;40.25;;;;;6.71;92.73;102739.41;5060803;28;45247;-61
2021/11/06 04:03:29;;;;;;;;;40.25;35.75;;;;;6.65;92.75;102741.88;5060673;28;45521;-60
2021/11/06 04:05:54;;;;;;;;;34.50;27.25;;;;;6.62;93.06;102746.97;5060780;28;46000;-60
2021/11/06 04:08:20;;;;;;;;;38.75;31.00;;;;;6.60;93.40;102750.34;5060436;28;45327;-59
2021/11/06 04:10:46;;;;;;;;;36.00;29.50;;;;;6.59;93.01;102749.47;5060659;28;45344;-61
2021/11/06 04:13:13;;;;;;;;;41.50;36.25;;;;;6.57;93.03;102747.69;5060585;28;45317;-61
2021/11/06 04:15:40;;;;;;;;;37.75;28.75;;;;;6.60;93.26;102750.34;5060075;28;47077;-58
2021/11/06 04:18:05;;;;;;;;;37.50;32.00;;;;;6.59;93.09;102754.63;5058940;28;45178;-58
2021/11/06 04:20:31;;;;;;;;;33.00;29.75;;;;;6.57;93.01;102758.03;5060564;28;45358;-57
2021/11/06 04:22:56;;;;;;;;;37.00;31.25;;;;;6.54;93.21;102761.44;5058334;28;45563;-57
2021/11/06 04:25:22;;;;;;;;;36.25;30.25;;;;;6.54;93.48;102763.13;5050199;28;45319;-58
2021/11/06 04:27:47;;;;;;;;;38.75;30.00;;;;;6.55;93.54;102770.06;5059970;28;45299;-58
2021/11/06 04:30:14;;;;;;;;;32.25;29.25;;;;;6.54;93.33;102766.59;5060280;28;45480;-58
2021/11/06 04:32:40;;;;;;;;;34.75;32.50;;;;;6.54;93.31;102757.97;5059681;28;45246;-58
2021/11/06 04:35:06;;;;;;;;;36.75;32.75;;;;;6.53;93.38;102757.09;5063402;28;46283;-58
2021/11/06 04:37:31;;;;;;;;;34.75;28.00;;;;;6.54;93.36;102760.56;5061709;28;45538;-58
2021/11/06 04:39:56;;;;;;;;;36.00;33.00;;;;;6.54;93.78;102761.44;5060385;28;45288;-63
2021/11/06 04:42:22;;;;;;;;;35.00;28.75;;;;;6.54;93.42;102766.59;5058995;28;45595;-60
2021/11/06 04:44:47;;;;;;;;;42.50;29.00;;;;;6.53;93.44;102767.44;5059329;28;45922;-60
2021/11/06 04:47:13;;;;;;;;;33.75;30.25;;;;;6.55;93.23;102770.06;5058601;28;45231;-59
2021/11/06 04:49:38;;;;;;;;;35.00;30.25;;;;;6.55;93.37;102780.38;5060518;28;45229;-60
2021/11/06 04:52:05;;;;;;;;;31.00;27.75;;;;;6.53;93.32;102774.31;5057393;28;45504;-59
2021/11/06 04:54:30;;;;;;;;;35.25;27.25;;;;;6.49;93.34;102770.81;5047554;28;46321;-59
2021/11/06 04:56:55;;;;;;;;;30.75;26.75;;;;;6.45;93.51;102765.53;5059577;28;45244;-60
2021/11/06 04:59:21;;;;;;;;;29.00;23.75;;;;;6.45;93.35;102775.88;5060041;28;45307;-59
2021/11/06 05:01:47;;;;;;;;;37.75;28.00;;;;;6.43;93.51;102770.69;5058762;28;45261;-60
2021/11/06 05:04:12;;;;;;;;;23.00;22.75;;;;;6.40;93.51;102765.41;5059729;28;47136;-59
2021/11/06 05:06:37;;;;;;;;;26.75;24.00;;;;;6.42;93.94;102765.47;5056676;28;45385;-59
2021/11/06 05:09:03;;;;;;;;;36.00;27.50;;;;;6.43;93.46;102764.63;5055222;28;45250;-60
2021/11/06 05:11:28;;;;;;;;;29.00;25.75;;;;;6.46;93.62;102773.31;5055195;28;45589;-61
2021/11/06 05:13:54;;;;;;;;;28.00;26.00;;;;;6.47;93.25;102766.44;5059768;28;45995;-59
2021/11/06 05:16:19;;;;;;;;;34.25;29.50;;;;;6.46;93.51;102765.56;5059223;28;45315;-60
2021/11/06 05:18:45;;;;;;;;;26.00;21.75;;;;;6.42;93.24;102761.19;5057862;28;45317;-60
2021/11/06 05:21:10;;;;;;;;;28.25;25.75;;;;;6.39;93.16;102758.50;5058955;28;45308;-59
2021/11/06 05:23:36;;;;;;;;;29.75;26.50;;;;;6.41;93.42;102756.84;5052151;28;45229;-60
2021/11/06 05:26:01;;;;;;;;;23.00;21.25;;;;;6.39;93.28;102761.09;5053893;28;45583;-65
2021/11/06 05:28:27;;;;;;;;;31.25;26.75;;;;;6.40;93.55;102755.94;5059109;28;45647;-64
2021/11/06 05:30:52;;;;;;;;;30.75;25.00;;;;;6.38;93.41;102746.44;5058549;28;45351;-61
2021/11/06 05:33:18;;;;;;;;;28.00;26.00;;;;;6.40;93.32;102750.78;5059384;28;45197;-60
2021/11/06 05:35:43;;;;;;;;;30.50;27.50;;;;;6.38;93.40;102752.47;5065694;28;45398;-60
2021/11/06 05:38:08;;;;;;;;;33.00;25.50;;;;;6.39;93.02;102751.63;5059276;28;45444;-60
2021/11/06 05:40:34;;;;;;;;;28.00;23.50;;;;;6.36;93.36;102751.56;5058831;28;45401;-60
2021/11/06 05:42:59;;;;;;;;;28.25;24.25;;;;;6.33;93.12;102754.09;5059010;28;46159;-60
2021/11/06 05:45:25;;;;;;;;;25.00;22.00;;;;;6.20;93.03;102738.28;5058095;28;45405;-61
2021/11/06 05:47:51;;;;;;;;;34.75;28.75;;;;;6.23;93.08;102751.28;5062347;28;45335;-62
2021/11/06 05:50:17;;;;;;;;;27.25;24.50;;;;;6.21;93.36;102753.84;5062847;28;45409;-62
2021/11/06 05:52:43;;;;;;;;;24.25;23.25;;;;;6.21;93.14;102760.69;5057919;28;47392;-62
2021/11/06 05:55:13;;;;;;;;;36.25;26.50;;;;;6.21;93.15;102756.41;5057055;28;45272;-62
2021/11/06 05:57:38;;;;;;;;;28.75;21.00;;;;;6.20;92.85;102761.50;5062670;28;45445;-62
2021/11/06 06:00:06;;;;;;;;;30.75;26.25;;;;;6.16;93.08;102765.72;5062109;28;45265;-62
2021/11/06 06:02:32;;;;;;;;;26.75;24.50;;;;;6.16;93.10;102775.19;5062808;28;45418;-62
2021/11/06 06:04:57;;;;;;;;;36.25;29.75;;;;;6.14;93.27;102767.41;5062438;28;45462;-62
2021/11/06 06:07:23;;;;;;;;;31.00;27.25;;;;;6.13;93.69;102765.66;5062739;28;45381;-61
2021/11/06 06:09:48;;;;;;;;;33.25;25.00;;;;;6.13;93.29;102769.97;5062217;28;45505;-61
2021/11/06 06:12:13;;;;;;;;;39.25;32.50;;;;;6.09;93.45;102764.72;5057623;28;46183;-60
2021/11/06 06:14:39;;;;;;;;;31.75;29.25;;;;;6.09;93.51;102769.03;5052784;28;45382;-61
2021/11/06 06:17:04;;;;;;;;;33.00;27.00;;;;;6.04;93.75;102776.66;5051842;28;45279;-61
2021/11/06 06:19:29;;;;;;;;;35.25;27.75;;;;;5.98;93.54;102775.63;5051775;28;45589;-61
2021/11/06 06:21:55;;;;;;;;;35.75;29.00;;;;;5.95;93.59;102776.44;5049926;28;45318;-60
2021/11/06 06:24:20;;;;;;;;;35.25;30.25;;;;;5.95;93.50;102780.72;5049959;28;45506;-60
2021/11/06 06:26:45;;;;;;;;;37.75;30.50;;;;;5.95;93.56;102780.72;5062273;28;45374;-60
2021/11/06 06:29:11;;;;;;;;;33.25;28.50;;;;;5.94;93.83;102789.28;5060511;28;45475;-61
2021/11/06 06:31:36;;;;;;;;;35.25;31.25;;;;;5.92;94.09;102790.97;5058741;28;45983;-60
2021/11/06 06:34:02;;;;;;;;;32.25;30.00;;;;;5.94;93.82;102794.47;5052114;28;45457;-61
2021/11/06 06:36:27;;;;;;;;;33.25;28.75;;;;;5.94;93.68;102799.63;5052684;28;45520;-62
2021/11/06 06:38:52;;;;;;;;;36.00;32.25;;;;;5.95;93.59;102806.53;5050530;28;45438;-60
2021/11/06 06:41:18;;;;;;;;;44.00;30.00;;;;;5.94;94.09;102805.66;5050157;28;46465;-59
2021/11/06 06:43:43;;;;;;;;;32.50;27.50;;;;;5.94;93.85;102804.78;5059624;28;45331;-60
2021/11/06 06:46:09;;;;;;;;;35.25;32.00;;;;;5.87;93.68;102798.56;5060240;28;45689;-59
2021/11/06 06:48:34;;;;;;;;;27.50;27.50;;;;;5.88;94.01;102795.16;5061934;28;45305;-60
2021/11/06 06:50:59;;;;;;;;;32.25;29.25;;;;;5.88;93.59;102795.16;5057026;28;46185;-60
2021/11/06 06:53:25;;;;;;;;;33.50;29.25;;;;;5.91;94.25;102807.28;5058339;28;45414;-60
2021/11/06 06:55:50;;;;;;;;;32.75;28.75;;;;;5.93;94.05;102797.88;5060011;28;45266;-60
2021/11/06 06:58:17;;;;;;;;;32.25;30.00;;;;;5.95;93.70;102793.63;5058775;28;45421;-60
2021/11/06 07:00:42;;;;;;;;;39.75;30.50;;;;;6.02;93.83;102798.13;5057892;28;46902;-59
2021/11/06 07:03:07;;;;;;;;;30.50;28.00;;;;;6.04;93.72;102799.03;5055424;28;45312;-60
2021/11/06 07:05:33;;;;;;;;;31.50;27.25;;;;;6.10;93.99;102806.91;5045920;28;45619;-61
2021/11/06 07:07:58;;;;;;;;;27.25;27.25;;;;;6.14;93.39;102803.56;5061285;28;45599;-59
2021/11/06 07:10:25;;;;;;;;;36.75;32.00;;;;;6.18;93.70;102809.66;5061239;28;46872;-59
2021/11/06 07:12:51;;;;;;;;;35.25;31.50;;;;;6.22;93.80;102808.91;5061283;28;45409;-59
2021/11/06 07:15:17;;;;;;;;;33.25;30.25;;;;;6.24;93.37;102804.66;5052624;28;45245;-59
2021/11/06 07:17:42;;;;;;;;;36.00;29.50;;;;;6.30;93.58;102812.53;5049988;28;45552;-59
2021/11/06 07:20:09;;;;;;;;;40.00;36.25;;;;;6.32;93.87;102803.97;5051066;28;46269;-60
2021/11/06 07:22:35;;;;;;;;;33.25;28.75;;;;;6.38;93.59;102809.28;5055292;28;45224;-61
2021/11/06 07:25:01;;;;;;;;;34.25;32.75;;;;;6.40;93.54;102799.84;5051186;28;45552;-60
2021/11/06 07:27:27;;;;;;;;;40.75;33.75;;;;;6.48;93.19;102805.22;5058444;28;45407;-61
2021/11/06 07:29:52;;;;;;;;;29.75;29.50;;;;;6.53;92.76;102806.19;5059646;28;46142;-60
2021/11/06 07:32:18;;;;;;;;;34.75;32.00;;;;;6.58;93.21;102806.28;5058368;28;45323;-62
2021/11/06 07:34:44;;;;;;;;;43.75;33.00;;;;;6.61;93.37;102791.75;5061936;28;45350;-62
2021/11/06 07:37:09;;;;;;;;;33.75;30.00;;;;;6.71;93.17;102800.53;5064661;28;45321;-62
2021/11/06 07:39:35;;;;;;;;;42.50;28.25;;;;;6.75;93.16;102796.31;5048967;28;45291;-62
2021/11/06 07:42:00;;;;;;;;;35.25;29.75;;;;;6.84;92.47;102809.44;5057787;28;45336;-60
2021/11/06 07:44:25;;;;;;;;;28.75;28.00;;;;;6.88;92.20;102806.94;5058978;28;45389;-64
2021/11/06 07:46:51;;;;;;;;;35.50;29.50;;;;;6.91;91.98;102798.38;5059654;28;45250;-61
2021/11/06 07:49:16;;;;;;;;;36.00;27.75;;;;;6.92;91.94;102801.00;5060738;28;45561;-61
2021/11/06 07:51:42;;;;;;;;;39.50;33.75;;;;;7.00;91.94;102803.72;5060911;28;45212;-62
2021/11/06 07:54:08;;;;;;;;;37.75;32.75;;;;;7.07;91.96;102808.19;5047307;28;45299;-61
2021/11/06 07:56:36;;;;;;;;;37.75;34.00;;;;;7.17;92.03;102812.69;5060595;28;45725;-59
2021/11/06 07:59:02;;;;;;;;;45.00;35.75;;;;;7.24;91.82;102813.72;5058953;28;45517;-63
2021/11/06 08:01:29;;;;;;;;;39.50;31.75;;;;;7.30;91.66;102819.88;5060302;28;45324;-60
2021/11/06 08:03:55;;;;;;;;;36.50;35.50;;;;;7.35;91.39;102813.91;5059399;28;45263;-61
2021/11/06 08:06:21;;;;;;;;;43.25;37.25;;;;;7.39;90.53;102821.75;5060366;28;45330;-61
2021/11/06 08:08:46;;;;;;;;;39.00;32.75;;;;;7.40;90.78;102822.59;5058891;28;46118;-63
2021/11/06 08:11:11;;;;;;;;;41.25;38.50;;;;;7.45;90.60;102827.06;5052065;28;45398;-63
2021/11/06 08:13:37;;;;;;;;;34.25;32.00;;;;;7.51;90.95;102821.13;5049989;28;45214;-63
2021/11/06 08:16:02;;;;;;;;;40.50;36.75;;;;;7.58;90.51;102822.94;5050296;28;45512;-62
2021/11/06 08:18:29;;;;;;;;;40.25;32.75;;;;;7.68;90.61;102826.59;5049031;28;45304;-62
2021/11/06 08:20:55;;;;;;;;;40.75;37.25;;;;;7.75;90.21;102825.84;5050232;28;45724;-62
2021/11/06 08:23:20;;;;;;;;;42.25;37.75;;;;;7.80;90.41;102819.03;5048931;28;45380;-62
2021/11/06 08:25:47;;;;;;;;;39.75;35.75;;;;;7.84;89.76;102823.44;5052947;28;45513;-59
2021/11/06 08:28:13;;;;;;;;;40.25;35.00;;;;;7.89;89.86;102820.06;5059895;28;46315;-61
2021/11/06 08:30:39;;;;;;;;;39.75;30.50;;;;;7.90;89.39;102814.03;5059845;28;45478;-62
2021/11/06 08:33:04;;;;;;;;;40.75;36.25;;;;;7.94;89.05;102817.56;5060125;28;45291;-60
2021/11/06 08:35:30;;;;;;;;;38.75;33.50;;;;;7.93;89.16;102811.50;5067064;28;45288;-62
2021/11/06 08:38:01;;;;;;;;;38.75;37.75;;;;;8.01;89.05;102808.16;5055231;28;46983;-62
2021/11/06 08:40:27;;;;;;;;;40.25;34.50;;;;;8.11;89.54;102810.06;5047840;28;45644;-62
2021/11/06 08:42:53;;;;;;;;;45.75;39.50;;;;;8.28;89.30;102802.56;5049268;28;45551;-61
2021/11/06 08:45:20;;;;;;;;;45.25;35.50;;;;;8.38;89.07;102805.31;5052102;28;45465;-64
2021/11/06 08:47:46;;;;;;;;;48.25;35.50;;;;;8.55;88.64;102808.16;5048815;28;46188;-62
2021/11/06 08:50:24;;;;;;;;;41.75;37.25;;;;;8.71;87.90;102798.88;5050104;28;45391;-62
2021/11/06 08:52:51;;;;;;;;;53.75;43.75;;;;;8.85;88.00;102805.13;5049945;28;45394;-62
2021/11/06 08:55:17;;;;;;;;;45.75;36.00;;;;;8.98;87.11;102816.50;5047800;28;45761;-62
2021/11/06 08:57:43;;;;;;;;;43.50;39.25;;;;;9.11;86.83;102821.00;5048559;28;46128;-62
2021/11/06 09:00:18;;;;;;;;;37.50;29.50;;;;;9.21;86.88;102820.28;5046738;28;45465;-64
2021/11/06 09:02:43;;;;;;;;;38.00;34.25;;;;;9.28;86.32;102810.81;5048495;28;45373;-64
2021/11/06 09:05:09;;;;;;;;;42.00;36.75;;;;;9.38;86.34;102810.91;5048652;28;45464;-65
2021/11/06 09:07:36;;;;;;;;;35.00;30.50;;;;;9.57;85.33;102816.31;5049125;28;46584;-61
2021/11/06 09:10:08;;;;;;;;;43.00;31.50;;;;;9.71;85.40;102804.34;5058943;28;45823;-63
2021/11/06 09:12:34;;;;;;;;;43.75;31.25;;;;;9.89;84.19;102807.09;5059615;28;45449;-63
2021/11/06 09:15:00;;;;;;;;;34.00;28.25;;;;;10.07;83.21;102808.97;5059035;28;45258;-64
2021/11/06 09:17:25;;;;;;;;;32.00;28.75;;;;;10.22;82.60;102813.47;5059500;28;45713;-64
2021/11/06 09:19:51;;;;;;;;;36.00;31.00;;;;;10.39;82.84;102816.16;5048183;28;45433;-61
2021/11/06 09:22:17;;;;;;;;;28.25;22.50;;;;;10.53;81.46;102810.19;5059043;28;45429;-63
2021/11/06 09:24:43;;;;;;;;;30.25;28.75;;;;;10.68;81.92;102811.13;5047736;28;45535;-62
2021/11/06 09:27:08;;;;;;;;;30.75;26.50;;;;;10.75;81.97;102813.75;5059094;28;45176;-61
2021/11/06 09:29:34;;;;;;;;;36.50;32.25;;;;;10.86;77.66;102821.63;5059010;28;45165;-61
2021/11/06 09:31:59;;;;;;;;;39.00;30.50;;;;;11.02;79.85;102809.56;5059352;28;45222;-64
2021/11/06 09:34:25;;;;;;;;;33.75;28.00;;;;;11.57;77.92;102810.56;5049352;28;45492;-62
2021/11/06 09:36:50;;;;;;;;;28.75;27.25;;;;;12.59;78.75;102807.06;5052825;28;45223;-62
2021/11/06 09:39:15;;;;;;;;;35.00;32.00;;;;;13.26;74.16;102812.94;5047922;28;45236;-64
2021/11/06 09:41:41;;;;;;;;;35.75;32.50;;;;;13.70;74.01;102804.78;5048388;28;45177;-61
2021/11/06 09:44:08;;;;;;;;;32.25;31.00;;;;;13.80;73.80;102802.09;5051437;28;46200;-65
2021/11/06 09:46:34;;;;;;;;;31.50;29.75;;;;;13.61;67.91;102798.75;5055610;28;45335;-62
2021/11/06 09:49:00;;;;;;;;;33.25;29.75;;;;;13.44;69.85;102803.25;5058431;28;45280;-63
2021/11/06 09:51:26;;;;;;;;;31.25;28.50;;;;;13.35;71.92;102810.25;5059217;28;45326;-60
2021/11/06 09:53:54;;;;;;;;;31.00;27.25;;;;;13.27;70.52;102809.44;5050054;28;45460;-60
2021/11/06 09:56:23;;;;;;;;;33.25;27.25;;;;;13.23;72.12;102796.41;5058768;28;45291;-64
2021/11/06 09:58:50;;;;;;;;;35.25;30.25;;;;;13.40;73.19;102800.63;5058726;28;45993;-61
2021/11/06 10:01:16;;;;;;;;;33.00;27.50;;;;;14.60;71.12;102803.09;5058640;28;45415;-62
2021/11/06 10:03:42;;;;;;;;;37.00;30.50;;;;;15.42;67.65;102809.06;5058740;28;45404;-62
2021/11/06 10:06:21;;;;;;;;;30.50;27.75;;;;;15.99;67.19;102803.78;5052718;28;45316;-62
2021/11/06 10:08:47;;;;;;;;;31.00;31.00;;;;;16.20;65.73;102799.91;5047612;28;45387;-62
2021/11/06 10:11:19;;;;;;;;;30.75;27.25;;;;;16.37;66.17;102805.72;5048422;28;45349;-63
2021/11/06 10:13:54;;;;;;;;;27.50;23.00;;;;;17.35;63.34;102794.09;5048308;28;45353;-61
2021/11/06 10:16:56;;;;;;;;;25.25;24.50;;;;;16.98;59.89;102796.66;5048555;28;46331;-61
2021/11/06 10:19:32;;;;;;;;;23.00;21.50;;;;;16.56;60.74;102793.97;5024856;28;45538;-62
2021/11/06 10:22:13;;;;;;;;;25.50;22.75;;;;;16.97;64.33;102797.56;5045531;28;45485;-62
2021/11/06 10:24:52;;;;;;;;;25.50;21.50;;;;;18.14;62.09;102783.41;5046554;28;45529;-60
2021/11/06 10:27:24;;;;;;;;;22.50;21.25;;;;;18.43;60.86;102790.53;5058188;28;46129;-60
2021/11/06 10:30:04;;;;;;;;;18.75;18.75;;;;;18.87;59.55;102789.28;5058023;28;45449;-62
2021/11/06 10:32:31;;;;;;;;;20.50;17.50;;;;;18.80;58.87;102793.84;5054110;28;45403;-61
2021/11/06 10:35:16;;;;;;;;;21.25;19.00;;;;;19.07;57.30;102786.91;5054003;28;45474;-61
2021/11/06 10:37:42;;;;;;;;;18.00;13.00;;;;;20.09;45.18;102787.16;5051487;28;45279;-62
2021/11/06 10:40:10;;;;;;;;;12.25;12.00;;;;;19.80;52.86;102786.34;5052428;28;45936;-61
2021/11/06 10:42:46;;;;;;;;;14.50;12.25;;;;;19.06;50.42;102781.69;5052378;28;45468;-60
2021/11/06 10:45:14;;;;;;;;;12.50;12.50;;;;;17.97;44.62;102772.44;5061237;28;45560;-61
2021/11/06 10:48:05;;;;;;;;;15.00;14.25;;;;;16.98;50.38;102778.28;5060343;28;45985;-60
2021/11/06 10:50:45;;;;;;;;;15.00;14.25;;;;;16.34;53.94;102779.56;5061492;28;45822;-60
2021/11/06 10:53:12;;;;;;;;;16.75;14.25;;;;;16.10;50.84;102771.25;5051101;28;45295;-61
2021/11/06 10:55:40;;;;;;;;;16.50;14.75;;;;;17.40;49.57;102776.44;5058168;28;45448;-62
2021/11/06 10:58:20;;;;;;;;;15.00;13.25;;;;;19.20;50.82;102776.84;5061603;28;45347;-60
2021/11/06 11:00:52;;;;;;;;;17.25;15.75;;;;;19.14;49.53;102769.13;5060418;28;45550;-61
2021/11/06 11:03:22;;;;;;;;;15.00;13.50;;;;;18.72;51.45;102768.66;5061750;28;45426;-61
2021/11/06 11:05:47;;;;;;;;;14.00;13.25;;;;;18.61;50.38;102765.41;5061765;28;45346;-63
2021/11/06 11:08:13;;;;;;;;;14.00;10.00;;;;;19.60;44.41;102768.53;5061291;28;45497;-60
2021/11/06 11:10:40;;;;;;;;;16.00;11.75;;;;;18.91;40.92;102766.34;5061262;28;45374;-61
2021/11/06 11:13:17;;;;;;;;;11.00;11.00;;;;;17.87;44.98;102770.06;5061310;28;45481;-61